Time;durP1;ratioP1;P1;durP2;ratioP2;P2;SDS_P1;SDS_P2;PMS_P1;PMS_P2;Temp;Humidity;BMP_temperature;BMP_pressure;BME280_temperature;BME280_humidity;BME280_pressure;Samples;Min_cycle;Max_cycle;Signal;HPM_P1;HPM_P2
2022/07/23 05:00:47;;;;;;;6.30;5.70;;;24.60;97.20;;;;;;1707724;29;20179;-75
2022/07/23 05:01:38;;;;;;;6.13;5.63;;;24.60;97.20;;;;;;1707581;28;20210;-75
2022/07/23 05:02:29;;;;;;;5.87;5.37;;;24.60;97.20;;;;;;1707096;29;20518;-76
2022/07/23 05:03:20;;;;;;;6.65;6.15;;;24.60;97.20;;;;;;1707558;29;20203;-76
2022/07/23 05:04:12;;;;;;;6.20;5.60;;;24.60;97.20;;;;;;1707629;29;20285;-75
2022/07/23 05:05:03;;;;;;;7.10;6.40;;;24.60;97.20;;;;;;1707518;29;20569;-75
2022/07/23 05:05:55;;;;;;;6.38;5.88;;;24.60;97.20;;;;;;1707282;29;20452;-75
2022/07/23 05:06:46;;;;;;;6.97;6.27;;;24.60;97.20;;;;;;1707302;29;20206;-75
2022/07/23 05:07:38;;;;;;;6.47;6.07;;;24.60;97.20;;;;;;1707511;29;20454;-75
2022/07/23 05:08:29;;;;;;;7.00;6.30;;;24.60;97.20;;;;;;1707385;28;20226;-75
2022/07/23 05:09:20;;;;;;;6.20;5.70;;;24.60;97.20;;;;;;1707581;28;20293;-75
2022/07/23 05:10:11;;;;;;;7.00;5.50;;;24.60;97.20;;;;;;1707789;29;20446;-75
2022/07/23 05:11:03;;;;;;;6.37;5.87;;;24.60;97.20;;;;;;1707622;29;20438;-75
2022/07/23 05:11:54;;;;;;;6.40;5.90;;;24.60;97.20;;;;;;1707663;29;20213;-75
2022/07/23 05:12:45;;;;;;;7.10;6.50;;;24.60;97.20;;;;;;1707837;29;20281;-75
2022/07/23 05:13:36;;;;;;;6.22;5.72;;;24.60;97.20;;;;;;1707661;29;20294;-75
2022/07/23 05:14:28;;;;;;;7.37;6.80;;;24.60;97.20;;;;;;1707753;29;20206;-75
2022/07/23 05:15:19;;;;;;;6.67;6.17;;;24.60;97.20;;;;;;1707177;29;20202;-75
2022/07/23 05:16:12;;;;;;;7.00;6.50;;;24.60;97.20;;;;;;1707555;29;20485;-75
2022/07/23 05:17:03;;;;;;;7.40;6.10;;;24.60;97.20;;;;;;1707407;29;20207;-75
2022/07/23 05:17:55;;;;;;;6.63;5.90;;;24.60;97.20;;;;;;1707528;29;20225;-75
2022/07/23 05:18:45;;;;;;;6.28;5.78;;;24.60;97.20;;;;;;1707654;28;20226;-75
2022/07/23 05:19:37;;;;;;;6.43;5.93;;;24.60;97.20;;;;;;1707766;29;20212;-75
2022/07/23 05:20:28;;;;;;;6.70;6.10;;;24.60;97.20;;;;;;1707704;29;20209;-75
2022/07/23 05:21:20;;;;;;;6.37;5.77;;;24.60;97.20;;;;;;1707743;29;20446;-75
2022/07/23 05:22:10;;;;;;;7.00;6.50;;;24.60;97.20;;;;;;1707615;29;20454;-75
2022/07/23 05:23:02;;;;;;;6.73;6.23;;;24.60;97.20;;;;;;1707490;29;20474;-75
2022/07/23 05:23:53;;;;;;;8.03;7.33;;;24.60;97.20;;;;;;1707526;29;20214;-75
2022/07/23 05:24:45;;;;;;;6.73;6.20;;;24.60;97.20;;;;;;1707502;29;20521;-75
2022/07/23 05:25:36;;;;;;;6.78;6.28;;;24.60;97.20;;;;;;1707464;29;20563;-75
2022/07/23 05:26:27;;;;;;;6.00;5.50;;;24.60;97.20;;;;;;1707437;29;20672;-75
2022/07/23 05:27:18;;;;;;;7.13;6.50;;;24.60;97.20;;;;;;1707115;29;20210;-75
2022/07/23 05:28:10;;;;;;;7.73;6.93;;;24.60;97.20;;;;;;1707462;28;20210;-75
2022/07/23 05:29:01;;;;;;;6.20;5.80;;;24.60;97.20;;;;;;1707301;28;20718;-75
2022/07/23 05:29:52;;;;;;;7.10;6.60;;;24.60;97.20;;;;;;1707422;29;20871;-75
2022/07/23 05:30:43;;;;;;;6.90;6.30;;;24.60;97.20;;;;;;1707192;29;20213;-75
2022/07/23 05:31:36;;;;;;;6.97;6.47;;;24.50;97.20;;;;;;1707542;28;20521;-75
2022/07/23 05:32:27;;;;;;;6.03;5.60;;;24.50;97.20;;;;;;1707473;28;20560;-75
2022/07/23 05:33:19;;;;;;;6.60;6.10;;;24.60;97.20;;;;;;1707431;28;20460;-75
2022/07/23 05:34:10;;;;;;;6.80;6.30;;;24.50;97.20;;;;;;1707393;28;20532;-75
2022/07/23 05:35:02;;;;;;;6.60;6.10;;;24.50;97.20;;;;;;1707421;28;20449;-75
2022/07/23 05:35:53;;;;;;;6.70;6.20;;;24.50;97.20;;;;;;1707360;28;20214;-75
2022/07/23 05:36:45;;;;;;;7.00;6.50;;;24.50;97.20;;;;;;1707120;28;20482;-75
2022/07/23 05:37:36;;;;;;;6.95;6.45;;;24.50;97.20;;;;;;1707391;28;20206;-75
2022/07/23 05:38:27;;;;;;;6.17;5.57;;;24.50;97.20;;;;;;1707289;28;20194;-75
2022/07/23 05:39:18;;;;;;;6.77;6.27;;;24.50;97.20;;;;;;1707336;28;20821;-75
2022/07/23 05:40:11;;;;;;;5.97;5.47;;;24.50;97.20;;;;;;1707431;28;20516;-75
2022/07/23 05:41:02;;;;;;;6.80;6.20;;;24.50;97.20;;;;;;1707398;28;20211;-75
2022/07/23 05:41:54;;;;;;;6.93;6.43;;;24.50;97.20;;;;;;1707390;28;20473;-75
2022/07/23 05:42:45;;;;;;;6.47;6.07;;;24.50;97.20;;;;;;1707370;28;20454;-75
2022/07/23 05:43:37;;;;;;;7.83;7.03;;;24.50;97.20;;;;;;1707317;28;20518;-75
2022/07/23 05:44:27;;;;;;;6.73;6.20;;;24.60;97.20;;;;;;1707109;28;20619;-75
2022/07/23 05:45:19;;;;;;;7.03;6.53;;;24.50;97.20;;;;;;1707109;29;20898;-75
2022/07/23 05:46:10;;;;;;;5.80;5.40;;;24.60;97.20;;;;;;1707298;29;20206;-75
2022/07/23 05:47:03;;;;;;;6.40;5.80;;;24.60;97.20;;;;;;1706919;28;20286;-75
2022/07/23 05:47:54;;;;;;;7.28;6.68;;;24.60;97.20;;;;;;1707246;29;20453;-75
2022/07/23 05:48:49;;;;;;;7.20;6.60;;;24.60;97.20;;;;;;1707101;28;20317;-73
2022/07/23 05:49:40;;;;;;;6.63;6.00;;;24.60;97.20;;;;;;1707284;29;20213;-73
2022/07/23 05:50:32;;;;;;;7.07;6.47;;;24.60;97.20;;;;;;1707382;28;20448;-73
2022/07/23 05:51:24;;;;;;;7.20;6.53;;;24.60;97.20;;;;;;1707330;29;20210;-73
2022/07/23 05:52:16;;;;;;;7.70;7.00;;;24.60;97.20;;;;;;1707320;29;20198;-73
2022/07/23 05:53:07;;;;;;;6.67;6.17;;;24.60;97.20;;;;;;1707325;29;20816;-73
2022/07/23 05:53:59;;;;;;;6.93;6.40;;;24.60;97.20;;;;;;1707260;29;20500;-73
2022/07/23 05:54:49;;;;;;;7.33;6.70;;;24.60;97.20;;;;;;1707320;28;20462;-73
2022/07/23 05:55:41;;;;;;;6.70;6.20;;;24.60;97.20;;;;;;1707014;29;20482;-73
2022/07/23 05:56:32;;;;;;;6.90;6.40;;;24.60;97.20;;;;;;1706987;28;20206;-72
2022/07/23 05:57:24;;;;;;;7.23;6.70;;;24.60;97.20;;;;;;1707319;28;20525;-73
2022/07/23 05:58:14;;;;;;;6.93;6.35;;;24.60;97.20;;;;;;1707267;28;20666;-73
2022/07/23 05:59:06;;;;;;;7.00;6.40;;;24.70;97.20;;;;;;1707262;28;20834;-73
2022/07/23 05:59:57;;;;;;;6.68;6.15;;;24.70;97.20;;;;;;1707094;28;20635;-73
2022/07/23 06:00:49;;;;;;;6.87;6.37;;;24.70;97.20;;;;;;1707296;29;20216;-73
2022/07/23 06:01:40;;;;;;;6.97;6.47;;;24.70;97.20;;;;;;1707199;29;20229;-73
2022/07/23 06:02:33;;;;;;;7.30;6.70;;;24.70;97.20;;;;;;1707301;29;20293;-73
2022/07/23 06:03:24;;;;;;;7.40;6.70;;;24.70;97.20;;;;;;1707255;29;20946;-73
2022/07/23 06:04:16;;;;;;;6.22;5.82;;;24.70;97.20;;;;;;1707266;29;20678;-73
2022/07/23 06:05:09;;;;;;;7.80;5.83;;;24.70;97.20;;;;;;1707289;29;20658;-73
2022/07/23 06:06:01;;;;;;;7.55;6.05;;;24.70;97.20;;;;;;1707205;29;20442;-73
2022/07/23 06:06:51;;;;;;;7.45;6.78;;;24.70;97.20;;;;;;1707102;29;20217;-73
2022/07/23 06:07:43;;;;;;;8.27;7.57;;;24.70;97.20;;;;;;1707253;29;20285;-73
2022/07/23 06:08:34;;;;;;;7.43;6.50;;;24.70;97.20;;;;;;1706761;29;20210;-73
2022/07/23 06:09:26;;;;;;;6.70;6.20;;;24.70;97.20;;;;;;1707249;28;21026;-73
2022/07/23 06:10:17;;;;;;;6.93;6.37;;;24.70;97.20;;;;;;1707242;28;20213;-73
2022/07/23 06:11:09;;;;;;;6.80;6.30;;;24.70;97.20;;;;;;1707244;28;20521;-73
2022/07/23 06:12:00;;;;;;;7.23;6.63;;;24.70;97.20;;;;;;1707252;28;20446;-73
2022/07/23 06:12:51;;;;;;;6.87;6.37;;;24.70;97.20;;;;;;1707376;28;20458;-73
2022/07/23 06:13:42;;;;;;;7.40;6.90;;;24.70;97.20;;;;;;1708124;28;20588;-73
2022/07/23 06:14:34;;;;;;;6.70;6.10;;;24.70;97.20;;;;;;1708615;28;20895;-73
2022/07/23 06:15:25;;;;;;;7.07;6.47;;;24.70;97.20;;;;;;1708595;28;20202;-73
2022/07/23 06:16:17;;;;;;;6.90;6.40;;;24.80;97.20;;;;;;1708542;28;20281;-73
2022/07/23 06:17:08;;;;;;;6.70;6.20;;;24.80;97.20;;;;;;1708322;28;20473;-73
2022/07/23 06:18:01;;;;;;;7.23;6.50;;;24.80;97.20;;;;;;1708507;28;20561;-73
2022/07/23 06:18:51;;;;;;;7.13;6.60;;;24.80;97.20;;;;;;1708575;28;20473;-73
2022/07/23 06:19:43;;;;;;;6.90;6.40;;;24.80;97.20;;;;;;1708576;28;20533;-73
2022/07/23 06:20:34;;;;;;;6.13;5.65;;;24.80;97.20;;;;;;1708560;28;20210;-73
2022/07/23 06:21:26;;;;;;;7.03;6.53;;;24.80;97.20;;;;;;1708537;28;20200;-73
2022/07/23 06:22:17;;;;;;;6.70;6.20;;;24.80;97.20;;;;;;1708321;28;20442;-73
2022/07/23 06:23:09;;;;;;;7.00;6.30;;;24.80;97.20;;;;;;1708594;29;20198;-73
2022/07/23 06:23:59;;;;;;;7.07;6.38;;;24.80;97.20;;;;;;1708513;29;20207;-73
2022/07/23 06:24:51;;;;;;;7.27;6.77;;;24.90;97.20;;;;;;1708657;29;20286;-73
2022/07/23 06:25:42;;;;;;;8.20;7.50;;;24.90;97.20;;;;;;1708543;29;20213;-73
2022/07/23 06:26:34;;;;;;;7.23;6.60;;;24.90;97.20;;;;;;1708215;29;20448;-73
2022/07/23 06:27:25;;;;;;;7.35;6.80;;;24.90;97.20;;;;;;1708552;29;20202;-72
2022/07/23 06:28:16;;;;;;;7.20;6.70;;;24.90;97.20;;;;;;1708455;29;20209;-72
2022/07/23 06:29:07;;;;;;;7.77;7.17;;;25.00;97.20;;;;;;1708326;28;20230;-72
2022/07/23 06:29:58;;;;;;;7.43;6.73;;;25.00;97.20;;;;;;1708446;29;20529;-72
2022/07/23 06:30:50;;;;;;;6.70;6.20;;;25.00;97.20;;;;;;1708534;29;20202;-72
2022/07/23 06:31:41;;;;;;;7.50;6.90;;;25.00;97.20;;;;;;1708465;29;20230;-72
2022/07/23 06:32:32;;;;;;;7.27;6.67;;;25.00;97.20;;;;;;1708478;29;20540;-72
2022/07/23 06:33:24;;;;;;;7.73;7.03;;;25.10;97.20;;;;;;1708601;28;20203;-72
2022/07/23 06:34:16;;;;;;;7.00;6.50;;;25.10;97.20;;;;;;1708479;29;20461;-72
2022/07/23 06:35:08;;;;;;;7.47;6.87;;;25.10;97.20;;;;;;1708426;29;20463;-72
2022/07/23 06:35:59;;;;;;;7.72;7.13;;;25.20;97.20;;;;;;1708471;28;20838;-72
2022/07/23 06:36:50;;;;;;;7.07;6.50;;;25.20;97.20;;;;;;1708226;29;20206;-72
2022/07/23 06:37:42;;;;;;;6.93;6.43;;;25.20;97.20;;;;;;1708388;29;20525;-72
2022/07/23 06:38:33;;;;;;;7.30;6.70;;;25.20;97.20;;;;;;1708009;28;20217;-72
2022/07/23 06:39:24;;;;;;;7.33;6.73;;;25.20;97.20;;;;;;1708450;29;20448;-72
2022/07/23 06:40:15;;;;;;;7.37;6.77;;;25.20;97.20;;;;;;1708406;29;20570;-72
2022/07/23 06:41:07;;;;;;;7.07;6.53;;;25.30;97.20;;;;;;1708435;29;20892;-72
2022/07/23 06:41:58;;;;;;;7.30;6.70;;;25.30;97.20;;;;;;1708407;29;20206;-72
2022/07/23 06:42:49;;;;;;;7.30;6.80;;;25.30;97.20;;;;;;1708494;29;20534;-72
2022/07/23 06:43:40;;;;;;;7.00;6.33;;;25.30;97.20;;;;;;1708396;29;20218;-72
2022/07/23 06:44:32;;;;;;;6.80;6.30;;;25.30;97.20;;;;;;1708416;29;20482;-72
2022/07/23 06:45:23;;;;;;;7.10;6.60;;;25.30;97.20;;;;;;1708396;29;20618;-73
2022/07/23 06:46:15;;;;;;;7.97;6.33;;;25.30;97.20;;;;;;1708351;29;20841;-72
2022/07/23 06:47:06;;;;;;;7.27;6.70;;;25.30;97.20;;;;;;1708125;29;20454;-72
2022/07/23 06:47:57;;;;;;;7.03;6.53;;;25.30;97.20;;;;;;1708324;29;20534;-72
2022/07/23 06:48:50;;;;;;;7.20;6.67;;;25.30;97.20;;;;;;1708105;28;20485;-72
2022/07/23 06:49:41;;;;;;;8.00;7.30;;;25.30;97.20;;;;;;1708339;29;20994;-72
2022/07/23 06:50:32;;;;;;;6.83;6.20;;;25.30;97.20;;;;;;1708390;29;20458;-72
2022/07/23 06:51:24;;;;;;;8.03;7.43;;;25.40;97.20;;;;;;1708376;29;20525;-72
2022/07/23 06:52:15;;;;;;;7.70;6.80;;;25.40;97.20;;;;;;1708338;29;20210;-73
2022/07/23 06:53:06;;;;;;;7.53;6.63;;;25.40;97.20;;;;;;1708479;29;20298;-72
2022/07/23 06:53:58;;;;;;;7.00;6.50;;;25.40;97.20;;;;;;1708397;29;20210;-72
2022/07/23 06:54:50;;;;;;;8.25;7.28;;;25.40;97.20;;;;;;1708115;28;20446;-72
2022/07/23 06:55:41;;;;;;;7.03;6.53;;;25.40;97.20;;;;;;1708338;28;20202;-72
2022/07/23 06:56:32;;;;;;;7.40;6.70;;;25.40;97.20;;;;;;1708285;28;20446;-73
2022/07/23 06:57:25;;;;;;;11.63;6.07;;;25.40;97.20;;;;;;1708373;28;20206;-72
2022/07/23 06:58:19;;;;;;;7.10;6.60;;;25.40;97.20;;;;;;1708203;28;20453;-72
2022/07/23 06:59:10;;;;;;;7.20;6.27;;;25.40;97.20;;;;;;1708391;28;20894;-72
2022/07/23 07:00:02;;;;;;;6.80;6.23;;;25.40;97.20;;;;;;1708289;28;20442;-73
2022/07/23 07:00:52;;;;;;;7.27;6.60;;;25.40;97.20;;;;;;1708377;28;20822;-72
2022/07/23 07:01:44;;;;;;;8.03;7.43;;;25.40;97.20;;;;;;1708288;28;20529;-72
2022/07/23 07:02:35;;;;;;;6.60;6.10;;;25.50;97.20;;;;;;1708434;28;20571;-72
2022/07/23 07:03:27;;;;;;;6.73;6.23;;;25.50;97.20;;;;;;1708347;28;20648;-72
2022/07/23 07:04:19;;;;;;;7.00;6.40;;;25.50;97.20;;;;;;1708352;28;20210;-72
2022/07/23 07:05:11;;;;;;;6.43;5.93;;;25.50;97.20;;;;;;1708395;28;20305;-72
2022/07/23 07:06:02;;;;;;;6.90;6.40;;;25.50;97.20;;;;;;1708333;28;20449;-72
2022/07/23 07:06:54;;;;;;;8.30;7.60;;;25.50;97.20;;;;;;1708107;28;20214;-72
2022/07/23 07:07:45;;;;;;;6.83;6.27;;;25.50;97.20;;;;;;1708313;28;20446;-72
2022/07/23 07:08:37;;;;;;;6.27;5.77;;;25.50;97.20;;;;;;1708230;28;20449;-72
2022/07/23 07:09:27;;;;;;;6.60;6.20;;;25.50;97.20;;;;;;1708297;28;20230;-73
2022/07/23 07:10:19;;;;;;;7.40;6.90;;;25.50;97.20;;;;;;1708215;28;20481;-72
2022/07/23 07:11:10;;;;;;;9.70;7.00;;;25.50;97.20;;;;;;1708261;28;20214;-72
2022/07/23 07:12:02;;;;;;;6.90;6.40;;;25.50;97.20;;;;;;1707679;29;20819;-72
2022/07/23 07:12:53;;;;;;;7.53;6.93;;;25.50;97.20;;;;;;1708209;29;20449;-72
2022/07/23 07:13:45;;;;;;;7.10;6.60;;;25.50;97.20;;;;;;1708216;29;20230;-72
2022/07/23 07:14:35;;;;;;;7.90;7.20;;;25.50;97.20;;;;;;1708287;29;20206;-72
2022/07/23 07:15:27;;;;;;;7.20;6.60;;;25.50;97.20;;;;;;1708383;29;20953;-72
2022/07/23 07:16:18;;;;;;;6.57;5.97;;;25.50;97.20;;;;;;1708136;29;20202;-72
2022/07/23 07:17:10;;;;;;;7.50;6.90;;;25.50;97.20;;;;;;1708081;29;20458;-73
2022/07/23 07:18:01;;;;;;;7.40;6.70;;;25.50;97.20;;;;;;1708144;29;20803;-72
2022/07/23 07:18:53;;;;;;;6.87;6.27;;;25.50;97.20;;;;;;1708187;28;20809;-72
2022/07/23 07:19:45;;;;;;;7.57;6.90;;;25.50;97.20;;;;;;1708153;29;20210;-73
2022/07/23 07:20:37;;;;;;;6.93;6.43;;;25.50;97.20;;;;;;1708219;29;20969;-72
2022/07/23 07:21:28;;;;;;;7.43;6.83;;;25.50;97.20;;;;;;1708248;29;20573;-73
2022/07/23 07:22:20;;;;;;;8.07;6.10;;;25.50;97.20;;;;;;1708162;29;20877;-72
2022/07/23 07:23:12;;;;;;;7.00;6.50;;;25.50;97.20;;;;;;1708252;29;20794;-73
2022/07/23 07:24:04;;;;;;;7.27;6.57;;;25.50;97.20;;;;;;1708116;28;20478;-73
2022/07/23 07:24:55;;;;;;;7.00;6.40;;;25.50;97.20;;;;;;1707926;28;20946;-73
2022/07/23 07:25:47;;;;;;;6.90;6.37;;;25.50;97.20;;;;;;1707888;29;20662;-72
2022/07/23 07:26:39;;;;;;;7.32;6.70;;;25.60;97.20;;;;;;1707883;29;20349;-72
2022/07/23 07:27:30;;;;;;;9.10;7.22;;;25.60;97.20;;;;;;1707850;29;20250;-72
2022/07/23 07:28:21;;;;;;;7.47;6.85;;;25.60;97.20;;;;;;1707911;28;20210;-72
2022/07/23 07:29:13;;;;;;;6.90;6.30;;;25.60;97.20;;;;;;1708019;29;20328;-72
2022/07/23 07:30:05;;;;;;;7.40;6.80;;;25.60;97.20;;;;;;1708145;29;20206;-72
2022/07/23 07:30:57;;;;;;;7.50;6.90;;;25.70;97.20;;;;;;1708010;29;20450;-72
2022/07/23 07:31:48;;;;;;;7.60;6.88;;;25.70;97.20;;;;;;1708177;29;20465;-72
2022/07/23 07:32:40;;;;;;;7.17;6.67;;;25.80;97.20;;;;;;1708123;29;20198;-72
2022/07/23 07:33:31;;;;;;;6.87;6.43;;;25.80;97.20;;;;;;1708191;28;20225;-72
2022/07/23 07:34:23;;;;;;;10.13;6.60;;;25.80;97.20;;;;;;1708025;29;20541;-72
2022/07/23 07:35:15;;;;;;;6.87;6.37;;;25.80;97.20;;;;;;1708080;29;20209;-72
2022/07/23 07:36:07;;;;;;;6.97;6.37;;;25.90;97.20;;;;;;1708010;29;20454;-72
2022/07/23 07:36:58;;;;;;;7.07;6.43;;;25.90;97.20;;;;;;1707792;29;20481;-72
2022/07/23 07:37:50;;;;;;;7.07;6.47;;;25.90;97.20;;;;;;1708051;29;20444;-73
2022/07/23 07:38:40;;;;;;;6.83;6.13;;;26.00;97.20;;;;;;1707945;28;20226;-72
2022/07/23 07:39:32;;;;;;;6.80;6.30;;;26.00;97.20;;;;;;1708077;29;20469;-72
2022/07/23 07:40:23;;;;;;;6.63;6.13;;;26.10;97.20;;;;;;1708063;29;20215;-72
2022/07/23 07:41:15;;;;;;;6.80;6.30;;;26.10;97.20;;;;;;1708071;28;20537;-72
2022/07/23 07:42:06;;;;;;;7.53;6.93;;;26.10;97.20;;;;;;1707995;29;20454;-72
2022/07/23 07:42:58;;;;;;;6.70;6.13;;;26.10;97.20;;;;;;1708074;29;20453;-72
2022/07/23 07:43:49;;;;;;;6.83;6.17;;;26.10;97.20;;;;;;1708070;28;20457;-73
2022/07/23 07:44:40;;;;;;;7.00;6.40;;;26.20;97.20;;;;;;1707716;29;20533;-72
2022/07/23 07:45:31;;;;;;;7.60;6.90;;;26.20;97.20;;;;;;1708112;28;20213;-72
2022/07/23 07:46:23;;;;;;;6.97;6.23;;;26.20;97.20;;;;;;1707817;28;20448;-72
2022/07/23 07:47:15;;;;;;;6.93;6.43;;;26.20;97.20;;;;;;1707813;28;20537;-72
2022/07/23 07:48:07;;;;;;;7.00;6.40;;;26.30;97.20;;;;;;1707966;28;20442;-73
2022/07/23 07:48:57;;;;;;;6.90;6.20;;;26.30;97.20;;;;;;1707732;28;20967;-72
2022/07/23 07:49:49;;;;;;;6.70;6.10;;;26.30;97.20;;;;;;1708127;28;20985;-73
2022/07/23 07:50:41;;;;;;;6.63;6.03;;;26.30;97.20;;;;;;1708050;28;20214;-73
2022/07/23 07:51:33;;;;;;;7.17;6.67;;;26.40;97.20;;;;;;1708056;28;20844;-72
2022/07/23 07:52:24;;;;;;;6.40;5.80;;;26.40;97.20;;;;;;1708028;28;20545;-73
2022/07/23 07:53:16;;;;;;;6.50;5.90;;;26.40;97.20;;;;;;1708318;28;20456;-72
2022/07/23 07:54:06;;;;;;;6.60;6.10;;;26.40;97.20;;;;;;1708136;28;20207;-73
2022/07/23 07:54:58;;;;;;;7.30;6.60;;;26.40;97.20;;;;;;1708041;28;20481;-73
2022/07/23 07:55:49;;;;;;;6.93;6.43;;;26.40;97.20;;;;;;1708070;28;20578;-73
2022/07/23 07:56:41;;;;;;;7.27;6.67;;;26.40;97.20;;;;;;1707685;28;20529;-72
2022/07/23 07:57:32;;;;;;;7.00;6.40;;;26.40;97.20;;;;;;1708074;28;20210;-72
2022/07/23 07:58:24;;;;;;;6.80;6.37;;;26.40;97.20;;;;;;1707753;28;21002;-72
2022/07/23 07:59:14;;;;;;;7.00;6.40;;;26.40;97.20;;;;;;1708032;28;20446;-72
2022/07/23 08:00:09;;;;;;;7.50;6.90;;;26.40;97.20;;;;;;1707984;28;20992;-72
2022/07/23 08:01:00;;;;;;;6.67;6.07;;;26.40;97.20;;;;;;1707590;28;20742;-72
2022/07/23 08:01:52;;;;;;;7.07;6.37;;;26.40;97.20;;;;;;1708055;29;20878;-72
2022/07/23 08:02:44;;;;;;;6.87;6.37;;;26.40;97.20;;;;;;1707915;28;20933;-72
2022/07/23 08:03:36;;;;;;;7.10;6.40;;;26.50;97.20;;;;;;1707968;29;20858;-72
2022/07/23 08:04:27;;;;;;;6.47;5.87;;;26.50;97.20;;;;;;1707887;29;20198;-72
2022/07/23 08:05:21;;;;;;;6.20;5.70;;;26.50;97.20;;;;;;1707934;29;20525;-72
2022/07/23 08:06:13;;;;;;;6.37;5.77;;;26.50;97.20;;;;;;1707883;28;20302;-72
2022/07/23 08:07:05;;;;;;;7.20;6.50;;;26.50;97.20;;;;;;1707643;29;20457;-72
2022/07/23 08:07:57;;;;;;;6.60;6.10;;;26.60;97.20;;;;;;1707887;29;20461;-72
2022/07/23 08:08:49;;;;;;;9.20;6.67;;;26.60;97.20;;;;;;1707860;28;20477;-73
2022/07/23 08:09:39;;;;;;;7.40;6.10;;;26.70;97.20;;;;;;1707779;29;20490;-72
2022/07/23 08:10:32;;;;;;;6.20;5.70;;;26.70;97.20;;;;;;1707938;29;20537;-72
2022/07/23 08:11:22;;;;;;;7.17;6.53;;;26.70;97.20;;;;;;1707871;29;20726;-71
2022/07/23 08:12:14;;;;;;;7.83;7.13;;;26.70;97.20;;;;;;1707920;29;20840;-72
2022/07/23 08:13:05;;;;;;;6.43;5.93;;;26.80;97.20;;;;;;1707851;29;20199;-72
2022/07/23 08:13:57;;;;;;;6.57;6.07;;;26.80;97.20;;;;;;1707841;28;20473;-72
2022/07/23 08:14:47;;;;;;;7.03;6.43;;;26.80;97.20;;;;;;1708025;29;20958;-72
2022/07/23 08:15:39;;;;;;;7.43;6.83;;;26.80;97.20;;;;;;1707876;29;20982;-72
2022/07/23 08:16:30;;;;;;;6.90;6.30;;;26.80;97.20;;;;;;1707765;29;20217;-71
2022/07/23 08:17:22;;;;;;;6.43;5.93;;;26.80;97.20;;;;;;1707270;29;20544;-72
2022/07/23 08:18:13;;;;;;;7.50;6.80;;;26.80;97.20;;;;;;1707816;29;20211;-72
2022/07/23 08:19:04;;;;;;;8.20;7.50;;;26.80;97.20;;;;;;1707767;28;20470;-72
2022/07/23 08:19:55;;;;;;;7.57;6.77;;;26.80;97.20;;;;;;1707779;29;20206;-72
2022/07/23 08:20:47;;;;;;;7.40;6.80;;;26.80;97.20;;;;;;1707895;29;20450;-72
2022/07/23 08:21:39;;;;;;;8.10;7.30;;;26.90;97.20;;;;;;1707803;29;20217;-73
2022/07/23 08:22:46;;;;;;;7.20;6.60;;;26.90;97.20;;;;;;1707792;29;20525;-72
2022/07/23 08:23:38;;;;;;;6.63;6.13;;;26.90;97.20;;;;;;1707811;29;20450;-72
2022/07/23 08:24:28;;;;;;;6.90;6.20;;;26.90;97.20;;;;;;1707864;29;20457;-72
2022/07/23 08:25:22;;;;;;;7.13;6.40;;;27.00;97.20;;;;;;1707763;29;20546;-72
2022/07/23 08:26:13;;;;;;;7.17;6.53;;;27.00;97.20;;;;;;1707485;29;20195;-72
2022/07/23 08:27:05;;;;;;;6.97;6.37;;;27.00;97.20;;;;;;1707613;28;20477;-72
2022/07/23 08:27:57;;;;;;;6.87;6.30;;;27.00;97.20;;;;;;1707748;28;20837;-72
2022/07/23 08:28:49;;;;;;;7.03;6.50;;;27.10;97.20;;;;;;1707755;28;20468;-72
2022/07/23 08:29:40;;;;;;;6.70;6.20;;;27.10;97.20;;;;;;1707757;28;20989;-72
2022/07/23 08:30:32;;;;;;;6.37;5.87;;;27.10;97.20;;;;;;1707811;28;20884;-72
2022/07/23 08:31:23;;;;;;;6.17;5.70;;;27.20;97.20;;;;;;1707744;28;20210;-72
2022/07/23 08:32:15;;;;;;;6.93;6.33;;;27.20;97.20;;;;;;1707792;28;20448;-72
2022/07/23 08:33:07;;;;;;;6.27;5.73;;;27.20;97.20;;;;;;1707792;28;20203;-72
2022/07/23 08:33:59;;;;;;;6.10;5.63;;;27.20;97.20;;;;;;1707413;28;20450;-72
2022/07/23 08:34:50;;;;;;;6.60;6.10;;;27.30;97.20;;;;;;1707822;28;20957;-74
2022/07/23 08:35:45;;;;;;;6.23;5.73;;;27.30;97.20;;;;;;1707751;28;20900;-73
2022/07/23 08:36:40;;;;;;;6.80;6.20;;;27.40;97.20;;;;;;1707089;28;20245;-73
2022/07/23 08:37:32;;;;;;;6.33;5.90;;;27.40;97.20;;;;;;1707314;28;20486;-72
2022/07/23 08:38:23;;;;;;;6.07;5.57;;;27.40;97.20;;;;;;1707710;28;20446;-73
2022/07/23 08:39:14;;;;;;;6.43;5.93;;;27.50;97.20;;;;;;1707764;28;20442;-72
2022/07/23 08:40:06;;;;;;;6.20;5.70;;;27.50;97.20;;;;;;1707763;28;20814;-72
2022/07/23 08:40:58;;;;;;;5.80;5.40;;;27.50;97.20;;;;;;1707597;28;20450;-72
2022/07/23 08:41:50;;;;;;;6.30;5.80;;;27.50;97.20;;;;;;1707709;28;20585;-74
2022/07/23 08:42:42;;;;;;;6.50;6.00;;;27.60;97.20;;;;;;1707710;28;20505;-72
2022/07/23 08:43:35;;;;;;;6.77;6.17;;;27.60;97.20;;;;;;1707724;28;20458;-72
2022/07/23 08:44:26;;;;;;;5.83;5.40;;;27.70;97.20;;;;;;1707869;28;20923;-72
2022/07/23 08:45:20;;;;;;;6.00;5.50;;;27.70;97.20;;;;;;1707730;28;20830;-72
2022/07/23 08:46:14;;;;;;;6.53;5.93;;;27.70;97.20;;;;;;1707608;28;20457;-72
2022/07/23 08:47:05;;;;;;;7.53;6.23;;;27.80;97.20;;;;;;1707423;28;20935;-72
2022/07/23 08:47:59;;;;;;;6.90;6.40;;;27.80;97.20;;;;;;1707623;28;20448;-73
2022/07/23 08:48:50;;;;;;;7.45;6.95;;;27.80;97.20;;;;;;1707476;28;20486;-73
2022/07/23 08:49:42;;;;;;;6.83;6.23;;;27.80;97.20;;;;;;1707576;28;20207;-73
2022/07/23 08:50:36;;;;;;;7.77;6.77;;;27.80;97.20;;;;;;1706785;28;21563;-73
2022/07/23 08:51:28;;;;;;;6.50;6.10;;;27.80;97.20;;;;;;1707719;28;20451;-73
2022/07/23 08:52:20;;;;;;;6.70;6.20;;;27.80;97.20;;;;;;1707660;28;20545;-72
2022/07/23 08:53:12;;;;;;;7.30;6.60;;;27.80;97.20;;;;;;1707671;28;20465;-73
2022/07/23 08:54:04;;;;;;;6.90;6.30;;;27.80;97.20;;;;;;1707635;28;20454;-73
2022/07/23 08:54:57;;;;;;;7.40;6.80;;;27.80;97.20;;;;;;1707645;28;20438;-73
2022/07/23 08:55:49;;;;;;;6.90;6.40;;;27.80;97.20;;;;;;1707525;28;20461;-72
2022/07/23 08:56:41;;;;;;;7.00;6.47;;;27.80;97.20;;;;;;1707337;28;20446;-73
2022/07/23 08:57:32;;;;;;;6.27;5.83;;;27.80;97.20;;;;;;1707679;28;20450;-73
2022/07/23 08:58:25;;;;;;;6.70;6.10;;;27.90;97.20;;;;;;1707484;28;20525;-73
2022/07/23 08:59:16;;;;;;;6.50;6.00;;;27.90;97.20;;;;;;1707641;28;20658;-72
2022/07/23 09:00:09;;;;;;;6.70;6.00;;;27.90;97.20;;;;;;1707685;28;20515;-73
2022/07/23 09:01:01;;;;;;;7.07;6.47;;;27.90;97.20;;;;;;1707674;28;20450;-73
2022/07/23 09:01:52;;;;;;;6.73;6.13;;;28.00;97.20;;;;;;1707592;28;20611;-73
2022/07/23 09:02:44;;;;;;;5.90;5.50;;;28.00;97.20;;;;;;1707604;28;20461;-73
2022/07/23 09:03:38;;;;;;;6.60;6.10;;;28.00;97.20;;;;;;1707605;28;20450;-73
2022/07/23 09:04:28;;;;;;;7.23;6.53;;;28.10;97.20;;;;;;1707713;28;20457;-73
2022/07/23 09:05:27;;;;;;;7.43;6.73;;;28.10;97.20;;;;;;1707613;28;21256;-72
2022/07/23 09:06:18;;;;;;;7.13;6.40;;;28.20;97.20;;;;;;1707611;28;20551;-73
2022/07/23 09:07:10;;;;;;;6.87;6.37;;;28.20;97.20;;;;;;1707065;28;20529;-73
2022/07/23 09:08:07;;;;;;;6.70;6.20;;;28.20;97.20;;;;;;1707294;29;20686;-73
2022/07/23 09:08:59;;;;;;;6.20;5.70;;;28.30;97.20;;;;;;1707541;28;21041;-73
2022/07/23 09:10:05;;;;;;;6.97;6.37;;;28.30;97.20;;;;;;1707440;29;20454;-73
2022/07/23 09:10:59;;;;;;;6.13;5.63;;;28.40;97.20;;;;;;1707542;29;20935;-73
2022/07/23 09:12:03;;;;;;;7.17;6.57;;;28.40;97.20;;;;;;1707539;29;20821;-73
2022/07/23 09:12:55;;;;;;;6.60;6.10;;;28.40;97.20;;;;;;1707514;29;20462;-73
2022/07/23 09:13:49;;;;;;;6.83;6.33;;;28.40;97.20;;;;;;1707490;29;20938;-73
2022/07/23 09:14:41;;;;;;;6.07;5.67;;;28.40;97.20;;;;;;1707452;29;20453;-73
2022/07/23 09:15:33;;;;;;;7.10;6.60;;;28.40;97.20;;;;;;1707338;29;20442;-73
2022/07/23 09:16:27;;;;;;;6.67;6.07;;;28.40;97.20;;;;;;1707439;29;20843;-73
2022/07/23 09:17:18;;;;;;;6.30;5.80;;;28.40;97.20;;;;;;1707210;29;20450;-73
2022/07/23 09:18:08;;;;;;;6.73;6.23;;;28.40;97.20;;;;;;1707510;29;20566;-73
2022/07/23 09:19:01;;;;;;;6.67;6.10;;;28.40;97.20;;;;;;1707381;28;20469;-73
2022/07/23 09:20:08;;;;;;;8.80;6.90;;;28.40;97.20;;;;;;1707540;29;20210;-73
2022/07/23 09:21:07;;;;;;;6.50;6.10;;;28.40;97.20;;;;;;1707437;29;20443;-73
2022/07/23 09:22:17;;;;;;;6.77;6.17;;;28.40;97.20;;;;;;1707409;29;21203;-73
2022/07/23 09:23:10;;;;;;;6.43;5.93;;;28.40;97.20;;;;;;1707527;29;20442;-72
2022/07/23 09:24:03;;;;;;;7.37;6.80;;;28.50;97.20;;;;;;1707118;29;20481;-73
2022/07/23 09:25:09;;;;;;;6.63;6.13;;;28.50;97.20;;;;;;1707308;29;20457;-73
2022/07/23 09:26:02;;;;;;;6.70;6.20;;;28.50;97.20;;;;;;1707358;29;20472;-73
2022/07/23 09:26:55;;;;;;;6.57;5.90;;;28.60;97.20;;;;;;1707074;29;20597;-73
2022/07/23 09:27:54;;;;;;;6.80;6.30;;;28.60;97.20;;;;;;1707417;29;20454;-73
2022/07/23 09:28:52;;;;;;;6.80;6.30;;;28.60;97.20;;;;;;1707391;28;20466;-73
2022/07/23 09:29:57;;;;;;;6.80;6.30;;;28.70;97.20;;;;;;1707375;29;20516;-73
2022/07/23 09:30:51;;;;;;;7.23;6.63;;;28.70;97.20;;;;;;1707499;29;20446;-73
2022/07/23 09:31:45;;;;;;;7.63;6.77;;;28.70;97.20;;;;;;1707381;29;20454;-73